createdAt,value
2022-08-31T00:00:45.012Z,29.00
2022-08-31T00:03:11.929Z,29.00
2022-08-31T00:05:39.736Z,29.50
2022-08-31T00:08:07.724Z,30.25
2022-08-31T00:10:37.049Z,29.00
2022-08-31T00:13:06.948Z,29.50
2022-08-31T00:15:35.485Z,29.00
2022-08-31T00:18:02.719Z,28.50
2022-08-31T00:20:33.784Z,29.00
2022-08-31T00:23:07.058Z,29.00
2022-08-31T00:25:34.958Z,28.00
2022-08-31T00:28:02.830Z,29.00
2022-08-31T00:30:30.990Z,29.50
2022-08-31T00:32:58.756Z,29.00
2022-08-31T00:35:27.941Z,31.25
2022-08-31T00:37:55.058Z,30.00
2022-08-31T00:40:32.342Z,29.00
2022-08-31T00:43:00.642Z,29.00
2022-08-31T00:45:28.662Z,28.00
2022-08-31T00:47:58.013Z,30.25
2022-08-31T00:50:40.411Z,29.50
2022-08-31T00:53:07.621Z,29.00
2022-08-31T00:55:36.932Z,28.25
2022-08-31T00:58:11.337Z,28.00
2022-08-31T01:00:39.876Z,29.00
2022-08-31T01:03:08.532Z,29.50
2022-08-31T01:05:36.838Z,29.00
2022-08-31T01:08:05.234Z,31.50
2022-08-31T01:10:37.156Z,30.00
2022-08-31T01:13:04.696Z,31.00
2022-08-31T01:15:32.795Z,29.00
2022-08-31T01:18:09.168Z,29.50
2022-08-31T01:21:12.237Z,31.50
2022-08-31T01:23:43.280Z,29.00
2022-08-31T01:26:15.603Z,29.00
2022-08-31T01:28:42.995Z,30.00
2022-08-31T01:31:31.668Z,29.00
2022-08-31T01:33:58.789Z,28.00
2022-08-31T01:36:29.194Z,27.50
2022-08-31T01:38:56.461Z,29.75
2022-08-31T01:41:37.059Z,30.00
2022-08-31T01:44:03.999Z,29.00
2022-08-31T01:46:31.010Z,29.75
2022-08-31T01:49:00.562Z,28.75
2022-08-31T01:51:27.442Z,28.00
2022-08-31T01:53:55.222Z,28.00
2022-08-31T01:56:26.502Z,28.50
2022-08-31T01:58:53.961Z,28.00
2022-08-31T02:01:55.355Z,28.00
2022-08-31T02:04:26.207Z,28.50
2022-08-31T02:07:00.496Z,28.00
2022-08-31T02:09:28.871Z,29.50
2022-08-31T02:11:56.831Z,28.50
2022-08-31T02:14:23.868Z,28.50
2022-08-31T02:16:50.761Z,28.00
2022-08-31T02:19:23.970Z,27.75
2022-08-31T02:21:51.117Z,29.00
2022-08-31T02:24:18.129Z,30.00
2022-08-31T02:26:45.117Z,29.00
2022-08-31T02:29:12.047Z,30.25
2022-08-31T02:31:39.210Z,28.00
2022-08-31T02:34:06.239Z,28.00
2022-08-31T02:36:35.701Z,28.00
2022-08-31T02:39:04.424Z,28.00
2022-08-31T02:41:33.947Z,29.00
2022-08-31T02:44:00.750Z,28.75
2022-08-31T02:46:27.889Z,30.00
2022-08-31T02:49:11.084Z,29.00
2022-08-31T02:51:42.871Z,29.00
2022-08-31T02:54:11.549Z,31.00
2022-08-31T02:56:38.692Z,29.25
2022-08-31T02:59:07.209Z,29.25
2022-08-31T03:01:36.359Z,31.00
2022-08-31T03:04:04.136Z,29.50
2022-08-31T03:06:31.107Z,30.75
2022-08-31T03:09:01.096Z,31.00
2022-08-31T03:11:28.620Z,32.50
2022-08-31T03:14:04.192Z,33.00
2022-08-31T03:16:31.183Z,34.00
2022-08-31T03:19:05.432Z,32.00
2022-08-31T03:21:32.390Z,35.75
2022-08-31T03:23:59.353Z,34.00
2022-08-31T03:26:26.821Z,36.25
2022-08-31T03:28:53.742Z,35.00
2022-08-31T03:31:39.764Z,35.00
2022-08-31T03:34:06.876Z,35.00
2022-08-31T03:36:33.925Z,36.00
2022-08-31T03:39:01.025Z,34.00
2022-08-31T03:41:28.149Z,35.25
2022-08-31T03:43:55.478Z,35.50
2022-08-31T03:46:28.074Z,34.50
2022-08-31T03:48:55.228Z,34.75
2022-08-31T03:51:22.221Z,34.50
2022-08-31T03:53:49.192Z,35.50
2022-08-31T03:56:20.954Z,37.50
2022-08-31T03:58:50.175Z,36.00
2022-08-31T04:01:49.683Z,36.00
2022-08-31T04:04:35.358Z,34.25
2022-08-31T04:07:42.212Z,34.00
2022-08-31T04:10:28.599Z,35.50
2022-08-31T04:13:18.493Z,34.75
2022-08-31T04:16:10.610Z,35.75
2022-08-31T04:18:55.844Z,35.50
2022-08-31T04:21:25.518Z,36.00
2022-08-31T04:23:53.902Z,35.00
2022-08-31T04:26:22.676Z,35.00
2022-08-31T04:28:50.583Z,33.00
2022-08-31T04:31:19.058Z,33.75
2022-08-31T04:33:48.008Z,34.00
2022-08-31T04:36:18.798Z,34.00
2022-08-31T04:38:49.112Z,34.00
2022-08-31T04:41:19.222Z,32.50
2022-08-31T04:43:49.681Z,32.50
2022-08-31T04:46:18.433Z,33.00
2022-08-31T04:48:45.531Z,34.50
2022-08-31T04:51:14.788Z,34.75
2022-08-31T04:53:42.561Z,34.75
2022-08-31T04:56:19.133Z,35.00
2022-08-31T04:58:58.384Z,35.00
2022-08-31T05:01:38.642Z,33.50
2022-08-31T05:04:48.532Z,35.00
2022-08-31T05:07:16.225Z,34.00
2022-08-31T05:09:43.840Z,34.00
2022-08-31T05:12:10.767Z,33.50
2022-08-31T05:14:37.721Z,34.25
2022-08-31T05:17:14.958Z,34.00
2022-08-31T05:19:42.984Z,34.00
2022-08-31T05:22:11.869Z,34.00
2022-08-31T05:24:41.912Z,34.00
2022-08-31T05:27:08.770Z,34.00
2022-08-31T05:29:36.045Z,34.00
2022-08-31T05:32:25.533Z,35.75
2022-08-31T05:34:53.845Z,36.00
2022-08-31T05:37:21.034Z,34.00
2022-08-31T05:39:51.758Z,34.00
2022-08-31T05:42:18.904Z,32.00
2022-08-31T05:44:48.375Z,33.75
2022-08-31T05:47:16.323Z,35.00
2022-08-31T05:49:43.861Z,34.50
2022-08-31T05:52:14.696Z,34.50
2022-08-31T05:54:41.999Z,36.00
2022-08-31T05:57:08.926Z,34.75
2022-08-31T05:59:39.304Z,33.00
2022-08-31T06:02:10.256Z,32.50
2022-08-31T06:04:38.099Z,32.50
2022-08-31T06:07:13.834Z,35.00
2022-08-31T06:09:45.316Z,35.00
2022-08-31T06:12:16.141Z,35.00
2022-08-31T06:14:46.251Z,35.00
2022-08-31T06:17:15.044Z,34.00
2022-08-31T06:19:41.922Z,34.00
2022-08-31T06:22:09.082Z,33.00
2022-08-31T06:24:35.941Z,33.75
2022-08-31T06:27:03.280Z,36.00
2022-08-31T06:29:34.562Z,34.75
2022-08-31T06:32:02.694Z,34.00
2022-08-31T06:34:29.748Z,34.00
2022-08-31T06:37:06.986Z,33.75
2022-08-31T06:40:03.237Z,34.00
2022-08-31T06:43:08.397Z,33.50
2022-08-31T06:46:07.887Z,33.00
2022-08-31T06:48:57.244Z,33.50
2022-08-31T06:51:25.570Z,34.00
2022-08-31T06:53:53.531Z,34.25
2022-08-31T06:56:40.392Z,34.00
2022-08-31T06:59:26.461Z,33.25
2022-08-31T07:02:15.694Z,36.00
2022-08-31T07:04:42.977Z,34.00
2022-08-31T07:07:09.889Z,34.50
2022-08-31T07:09:38.565Z,33.50
2022-08-31T07:12:06.875Z,33.00
2022-08-31T07:14:34.145Z,35.25
2022-08-31T07:17:01.423Z,36.00
2022-08-31T07:19:28.698Z,35.00
2022-08-31T07:22:01.821Z,32.50
2022-08-31T07:24:31.631Z,34.00
2022-08-31T07:27:21.891Z,34.00
2022-08-31T07:29:53.578Z,32.75
2022-08-31T07:32:40.028Z,32.50
2022-08-31T07:35:07.581Z,32.50
2022-08-31T07:37:48.711Z,32.25
2022-08-31T07:40:16.513Z,33.00
2022-08-31T07:43:02.416Z,32.00
2022-08-31T07:45:33.476Z,34.75
2022-08-31T07:48:04.420Z,35.00
2022-08-31T07:50:50.111Z,35.50
2022-08-31T07:53:39.752Z,33.00
2022-08-31T07:56:36.068Z,32.00
2022-08-31T07:59:14.413Z,31.00
2022-08-31T08:01:43.390Z,34.00
2022-08-31T08:04:12.337Z,34.00
2022-08-31T08:06:59.933Z,33.50
2022-08-31T08:09:46.722Z,32.00
2022-08-31T08:12:34.275Z,32.25
2022-08-31T08:15:29.645Z,34.50
2022-08-31T08:18:08.227Z,33.00
2022-08-31T08:20:41.870Z,32.00
2022-08-31T08:23:15.647Z,32.50
2022-08-31T08:26:21.296Z,32.00
2022-08-31T08:29:07.854Z,33.00
2022-08-31T08:31:40.697Z,33.00
2022-08-31T08:34:08.162Z,32.00
2022-08-31T08:36:37.323Z,32.00
2022-08-31T08:39:08.604Z,33.00
2022-08-31T08:41:43.465Z,32.00
2022-08-31T08:44:14.718Z,31.00
2022-08-31T08:47:24.076Z,32.25
2022-08-31T08:49:59.921Z,33.00
2022-08-31T08:52:42.661Z,33.00
2022-08-31T08:55:36.942Z,31.00
2022-08-31T08:58:10.425Z,30.00
2022-08-31T09:00:41.381Z,30.75
2022-08-31T09:03:24.756Z,28.25
2022-08-31T09:06:26.981Z,31.00
2022-08-31T09:09:14.207Z,32.00
2022-08-31T09:12:17.893Z,31.00
2022-08-31T09:15:03.613Z,30.50
2022-08-31T09:17:50.831Z,31.25
2022-08-31T09:20:18.533Z,31.00
2022-08-31T09:23:04.529Z,30.00
2022-08-31T09:25:46.224Z,33.25
2022-08-31T09:28:43.601Z,34.00
2022-08-31T09:31:46.026Z,33.00
2022-08-31T09:34:31.362Z,32.75
2022-08-31T09:37:20.736Z,31.50
2022-08-31T09:40:09.176Z,31.50
2022-08-31T09:42:36.815Z,31.00
2022-08-31T09:45:09.528Z,30.00
2022-08-31T09:47:50.796Z,30.00
2022-08-31T09:50:38.623Z,32.00
2022-08-31T09:53:19.230Z,32.00
2022-08-31T09:55:46.304Z,30.00
2022-08-31T09:58:13.141Z,30.25
2022-08-31T10:00:46.336Z,31.00
2022-08-31T10:03:24.389Z,31.00
2022-08-31T10:05:52.492Z,31.00
2022-08-31T10:08:47.347Z,31.00
2022-08-31T10:11:19.661Z,30.00
2022-08-31T10:14:02.233Z,30.25
2022-08-31T10:16:41.400Z,31.00
2022-08-31T10:19:36.551Z,32.50
2022-08-31T10:22:15.398Z,33.75
2022-08-31T10:24:48.834Z,32.00
2022-08-31T10:27:25.736Z,32.00
2022-08-31T10:29:55.495Z,32.00
2022-08-31T10:32:34.502Z,33.75
2022-08-31T10:35:08.774Z,33.00
2022-08-31T10:37:55.445Z,34.25
2022-08-31T10:40:29.976Z,34.50
2022-08-31T10:43:08.985Z,35.00
2022-08-31T10:45:45.179Z,34.00
2022-08-31T10:48:12.745Z,36.00
2022-08-31T10:50:56.271Z,33.00
2022-08-31T10:53:49.881Z,34.75
2022-08-31T10:56:50.777Z,33.00
2022-08-31T10:59:47.742Z,33.25
2022-08-31T11:02:58.871Z,32.75
2022-08-31T11:05:50.746Z,33.50
2022-08-31T11:08:33.249Z,34.00
2022-08-31T11:11:02.642Z,33.75
2022-08-31T11:14:00.232Z,33.00
2022-08-31T11:16:50.252Z,32.75
2022-08-31T11:19:35.594Z,33.25
2022-08-31T11:22:05.611Z,33.00
2022-08-31T11:24:44.573Z,33.75
2022-08-31T11:27:11.473Z,33.75
2022-08-31T11:29:45.730Z,33.00
2022-08-31T11:32:21.880Z,32.25
2022-08-31T11:34:54.973Z,32.00
2022-08-31T11:37:49.984Z,32.00
2022-08-31T11:40:35.184Z,32.00
2022-08-31T11:43:03.487Z,30.50
2022-08-31T11:45:31.908Z,30.00
2022-08-31T11:47:59.228Z,30.00
2022-08-31T11:50:26.201Z,30.00
2022-08-31T11:52:54.749Z,30.00
2022-08-31T11:55:30.132Z,32.00
2022-08-31T11:58:00.009Z,32.25
2022-08-31T12:00:49.428Z,32.00
2022-08-31T12:03:38.191Z,31.25
2022-08-31T12:06:09.222Z,30.75
2022-08-31T12:08:37.993Z,30.00
2022-08-31T12:11:07.586Z,31.00
2022-08-31T12:13:50.031Z,30.00
2022-08-31T12:16:31.325Z,30.00
2022-08-31T12:19:21.756Z,30.00
2022-08-31T12:22:00.186Z,31.50
2022-08-31T12:24:49.443Z,32.00
2022-08-31T12:27:35.476Z,32.50
2022-08-31T12:30:22.844Z,31.00
2022-08-31T12:33:31.679Z,32.00
2022-08-31T12:36:15.655Z,32.00
2022-08-31T12:38:43.529Z,32.00
2022-08-31T12:41:13.272Z,30.50
2022-08-31T12:43:46.574Z,32.75
2022-08-31T12:46:28.319Z,32.00
2022-08-31T12:49:00.832Z,31.00
2022-08-31T12:51:33.880Z,30.00
2022-08-31T12:54:33.347Z,31.00
2022-08-31T12:57:49.368Z,30.50
2022-08-31T13:00:31.679Z,31.00
2022-08-31T13:03:16.873Z,31.00
2022-08-31T13:06:06.885Z,30.00
2022-08-31T13:08:43.874Z,30.00
2022-08-31T13:11:35.381Z,30.00
2022-08-31T13:14:21.167Z,31.00
2022-08-31T13:16:51.292Z,31.00
2022-08-31T13:19:27.514Z,32.00
2022-08-31T13:22:14.712Z,31.00
2022-08-31T13:24:53.685Z,30.00
2022-08-31T13:27:27.258Z,30.00
2022-08-31T13:29:56.321Z,31.00
2022-08-31T13:32:33.912Z,32.00
2022-08-31T13:35:08.688Z,30.00
2022-08-31T13:37:45.372Z,30.00
2022-08-31T13:40:18.655Z,29.00
2022-08-31T13:42:54.435Z,30.00
2022-08-31T13:45:30.812Z,30.00
2022-08-31T13:48:19.966Z,30.00
2022-08-31T13:50:58.402Z,30.00
2022-08-31T13:53:42.618Z,30.00
2022-08-31T13:56:23.369Z,30.00
2022-08-31T13:58:50.427Z,29.00
2022-08-31T14:01:23.749Z,30.00
2022-08-31T14:03:59.302Z,30.00
2022-08-31T14:06:35.264Z,30.00
2022-08-31T14:09:16.827Z,27.00
2022-08-31T14:11:53.888Z,27.00
2022-08-31T14:14:25.436Z,29.75
2022-08-31T14:16:57.728Z,30.00
2022-08-31T14:19:35.602Z,30.00
2022-08-31T14:22:29.085Z,30.00
2022-08-31T14:24:56.901Z,29.00
2022-08-31T14:27:24.220Z,29.00
2022-08-31T14:29:51.203Z,30.00
2022-08-31T14:32:19.336Z,30.25
2022-08-31T14:34:46.452Z,30.00
2022-08-31T14:37:13.425Z,29.00
2022-08-31T14:39:43.856Z,28.00
2022-08-31T14:42:16.473Z,26.25
2022-08-31T14:44:48.449Z,27.00
2022-08-31T14:47:35.998Z,26.00
2022-08-31T14:50:05.280Z,26.00
2022-08-31T14:52:37.447Z,27.00
2022-08-31T14:55:05.792Z,28.00
2022-08-31T14:57:33.686Z,28.00
2022-08-31T15:00:04.941Z,28.00
2022-08-31T15:02:33.389Z,27.00
2022-08-31T15:05:07.640Z,27.00
2022-08-31T15:07:38.594Z,26.00
2022-08-31T15:10:08.680Z,27.75
2022-08-31T15:12:35.788Z,28.00
2022-08-31T15:15:03.053Z,28.00
2022-08-31T15:17:32.244Z,30.00
2022-08-31T15:19:59.692Z,28.00
2022-08-31T15:22:26.935Z,27.00
2022-08-31T15:24:54.949Z,26.00
2022-08-31T15:27:22.098Z,28.25
2022-08-31T15:29:50.138Z,28.00
2022-08-31T15:32:17.684Z,28.00
2022-08-31T15:35:00.097Z,27.75
2022-08-31T15:37:30.716Z,29.25
2022-08-31T15:40:01.460Z,29.00
2022-08-31T15:42:29.201Z,29.00
2022-08-31T15:45:16.466Z,27.50
2022-08-31T15:47:43.782Z,27.00
2022-08-31T15:50:11.281Z,28.00
2022-08-31T15:52:38.693Z,27.00
2022-08-31T15:55:06.995Z,27.00
2022-08-31T15:57:34.754Z,27.50
2022-08-31T16:00:02.647Z,28.00
2022-08-31T16:02:31.377Z,28.00
2022-08-31T16:04:58.288Z,28.00
2022-08-31T16:07:25.396Z,27.00
2022-08-31T16:09:52.316Z,26.00
2022-08-31T16:12:19.309Z,29.50
2022-08-31T16:14:46.173Z,30.00
2022-08-31T16:17:14.603Z,30.00
2022-08-31T16:20:16.806Z,30.00
2022-08-31T16:22:43.812Z,28.00
2022-08-31T16:25:12.140Z,27.00
2022-08-31T16:27:39.119Z,27.00
2022-08-31T16:30:08.250Z,27.00
2022-08-31T16:32:35.651Z,27.00
2022-08-31T16:35:02.719Z,26.50
2022-08-31T16:37:29.879Z,29.75
2022-08-31T16:39:56.718Z,28.00
2022-08-31T16:42:23.832Z,27.00
2022-08-31T16:44:50.859Z,27.00
2022-08-31T16:47:19.487Z,28.50
2022-08-31T16:49:46.896Z,27.75
2022-08-31T16:52:17.385Z,28.00
2022-08-31T16:54:56.019Z,27.50
2022-08-31T16:57:26.059Z,28.00
2022-08-31T17:00:12.165Z,30.00
2022-08-31T17:02:39.822Z,32.00
2022-08-31T17:05:07.375Z,30.00
2022-08-31T17:07:34.273Z,29.00
2022-08-31T17:10:10.470Z,27.75
2022-08-31T17:12:37.859Z,27.00
2022-08-31T17:15:08.556Z,27.00
2022-08-31T17:17:35.484Z,29.25
2022-08-31T17:20:23.325Z,28.50
2022-08-31T17:22:51.600Z,31.75
2022-08-31T17:25:27.304Z,35.50
2022-08-31T17:27:58.729Z,47.75
2022-08-31T17:30:27.109Z,41.00
2022-08-31T17:32:54.016Z,34.75
2022-08-31T17:35:21.007Z,32.00
2022-08-31T17:37:48.487Z,31.50
2022-08-31T17:40:17.454Z,31.50
2022-08-31T17:42:44.407Z,32.75
2022-08-31T17:45:14.200Z,39.00
2022-08-31T17:47:41.564Z,44.25
2022-08-31T17:50:22.144Z,33.50
2022-08-31T17:52:49.465Z,31.00
2022-08-31T17:55:32.874Z,30.25
2022-08-31T17:58:07.821Z,32.00
2022-08-31T18:00:35.258Z,30.50
2022-08-31T18:03:02.371Z,34.00
2022-08-31T18:05:29.364Z,33.00
2022-08-31T18:07:56.248Z,34.00
2022-08-31T18:10:23.269Z,35.00
2022-08-31T18:12:53.145Z,34.00
2022-08-31T18:15:23.303Z,31.75
2022-08-31T18:21:30.078Z,33.00
2022-08-31T18:24:02.617Z,31.50
2022-08-31T18:26:42.649Z,30.50
2022-08-31T18:29:24.730Z,30.00
2022-08-31T18:31:53.108Z,29.00
2022-08-31T18:34:26.090Z,29.00
2022-08-31T18:36:54.570Z,28.25
2022-08-31T18:39:41.120Z,28.00
2022-08-31T18:42:24.481Z,28.00
2022-08-31T18:45:00.481Z,27.00
2022-08-31T18:47:27.684Z,27.00
2022-08-31T18:49:56.094Z,28.00
2022-08-31T18:52:26.416Z,29.00
2022-08-31T18:54:56.433Z,29.75
2022-08-31T18:57:26.092Z,28.00
2022-08-31T19:00:06.022Z,29.00
2022-08-31T19:02:44.380Z,28.50
2022-08-31T19:05:13.405Z,27.00
2022-08-31T19:08:03.280Z,26.75
2022-08-31T19:10:30.258Z,26.00
2022-08-31T19:13:13.259Z,26.00
2022-08-31T19:15:41.077Z,28.00
2022-08-31T19:18:08.304Z,27.00
2022-08-31T19:21:22.070Z,26.00
2022-08-31T19:23:52.533Z,26.00
2022-08-31T19:26:25.663Z,26.00
2022-08-31T19:28:55.000Z,27.00
2022-08-31T19:31:23.778Z,27.00
2022-08-31T19:33:56.368Z,28.50
2022-08-31T19:36:38.709Z,30.00
2022-08-31T19:39:08.394Z,34.75
2022-08-31T19:41:37.799Z,32.50
2022-08-31T19:44:08.507Z,31.00
2022-08-31T19:46:57.431Z,28.00
2022-08-31T19:49:26.340Z,28.50
2022-08-31T19:51:56.992Z,27.50
2022-08-31T19:54:26.945Z,27.00
2022-08-31T19:56:54.449Z,26.50
2022-08-31T19:59:22.558Z,26.00
2022-08-31T20:01:52.566Z,26.00
2022-08-31T20:04:26.878Z,26.00
2022-08-31T20:06:54.387Z,26.00
2022-08-31T20:09:22.997Z,26.25
2022-08-31T20:11:52.387Z,27.00
2022-08-31T20:14:21.442Z,27.25
2022-08-31T20:16:49.137Z,29.00
2022-08-31T20:19:18.124Z,30.50
2022-08-31T20:21:45.847Z,30.00
2022-08-31T20:24:24.441Z,28.50
2022-08-31T20:26:52.920Z,28.50
2022-08-31T20:29:20.430Z,32.00
2022-08-31T20:31:53.125Z,28.00
2022-08-31T20:34:21.437Z,28.00
2022-08-31T20:36:51.492Z,28.00
2022-08-31T20:39:19.572Z,26.00
2022-08-31T20:41:49.126Z,26.00
2022-08-31T20:44:24.942Z,28.00
2022-08-31T20:46:56.566Z,26.50
2022-08-31T20:49:23.572Z,27.00
2022-08-31T20:51:51.051Z,26.00
2022-08-31T20:54:17.917Z,26.00
2022-08-31T20:56:44.768Z,25.25
2022-08-31T20:59:11.944Z,27.00
2022-08-31T21:01:39.562Z,25.00
2022-08-31T21:04:08.084Z,26.00
2022-08-31T21:06:39.360Z,25.00
2022-08-31T21:09:06.465Z,25.00
2022-08-31T21:11:33.754Z,27.25
2022-08-31T21:14:00.708Z,26.00
2022-08-31T21:16:28.152Z,26.75
2022-08-31T21:18:55.032Z,26.00
2022-08-31T21:21:22.235Z,25.50
2022-08-31T21:23:49.194Z,25.00
2022-08-31T21:26:19.354Z,24.00
2022-08-31T21:28:46.252Z,26.00
2022-08-31T21:31:16.479Z,25.00
2022-08-31T21:33:57.989Z,25.00
2022-08-31T21:36:25.508Z,24.75
2022-08-31T21:38:57.097Z,25.00
2022-08-31T21:41:27.650Z,24.00
2022-08-31T21:43:57.681Z,24.00
2022-08-31T21:46:38.487Z,24.00
2022-08-31T21:49:06.113Z,25.75
2022-08-31T21:51:43.692Z,25.00
2022-08-31T21:54:10.592Z,24.50
2022-08-31T21:56:49.339Z,25.00
2022-08-31T21:59:18.939Z,25.00
2022-08-31T22:02:09.495Z,25.00
2022-08-31T22:04:41.401Z,24.00
2022-08-31T22:07:12.280Z,25.00
2022-08-31T22:09:39.189Z,25.00
2022-08-31T22:12:07.082Z,24.00
2022-08-31T22:14:39.491Z,24.00
2022-08-31T22:17:07.607Z,26.00
2022-08-31T22:19:37.351Z,25.00
2022-08-31T22:22:11.685Z,26.25
2022-08-31T22:24:40.598Z,26.00
2022-08-31T22:27:10.218Z,25.00
2022-08-31T22:29:44.721Z,24.00
2022-08-31T22:32:14.203Z,24.00
2022-08-31T22:34:42.843Z,24.00
2022-08-31T22:37:10.025Z,24.00
2022-08-31T22:39:37.134Z,26.00
2022-08-31T22:42:04.170Z,25.00
2022-08-31T22:44:32.736Z,25.75
2022-08-31T22:47:00.065Z,24.00
2022-08-31T22:49:27.516Z,24.00
2022-08-31T22:51:54.755Z,23.50
2022-08-31T22:54:23.341Z,24.00
2022-08-31T22:56:53.466Z,24.00
2022-08-31T22:59:23.008Z,24.00
2022-08-31T23:01:51.329Z,25.00
2022-08-31T23:04:19.059Z,25.00
2022-08-31T23:06:47.304Z,24.00
2022-08-31T23:09:15.444Z,23.00
2022-08-31T23:11:42.272Z,23.50
2022-08-31T23:14:09.212Z,24.00
2022-08-31T23:16:43.790Z,24.00
2022-08-31T23:19:16.594Z,23.50
2022-08-31T23:21:56.723Z,24.00
2022-08-31T23:24:46.693Z,23.00
2022-08-31T23:27:16.415Z,24.75
2022-08-31T23:29:47.250Z,24.50
2022-08-31T23:32:19.036Z,24.00
2022-08-31T23:34:52.654Z,25.00
2022-08-31T23:37:20.987Z,24.00
2022-08-31T23:39:47.819Z,24.00
2022-08-31T23:42:16.708Z,23.00
2022-08-31T23:44:45.314Z,24.00
2022-08-31T23:47:17.310Z,23.00
2022-08-31T23:49:45.319Z,22.00
2022-08-31T23:52:13.228Z,23.25
2022-08-31T23:54:40.568Z,23.00
2022-08-31T23:57:31.809Z,23.00
